Port Huron, MI

7:34 PM EST on December 02, 2016 (GMT -0500)
Saint Clair County International | | Change Station

Elev 650 ft 42.91 °N, 82.53 °W | Updated 18 minutes ago

Overcast
Overcast
37 °F
Feels Like 33 °F
N
6
Wind Variable Wind from WSW

Today
High -- | Low -- °F
--% Chance of Precip.
Yesterday
High -- | Low -- °F
Precip. -- in
Pressure 30.12 in
Visibility 10.0 miles
Clouds Overcast 2800 ft
Windchill 33 °F
Dew Point 30 °F
Humidity 75%
Rainfall 0.00 in
Snow Depth Not available.
7:42 AM 4:56 PM
Waxing Crescent, 11% visible
METAR KPHN 030016Z AUTO 25005KT 10SM OVC028 03/M01 A3012 RMK AO2
Pressure 30.12 in
Visibility 10.0 miles
Clouds Overcast 2800 ft
Windchill 33 °F
Dew Point 30 °F
Humidity 75%
Rainfall 0.00 in
Snow Depth Not available.
7:42 AM 4:56 PM
Waxing Crescent, 11% visible
METAR KPHN 030016Z AUTO 25005KT 10SM OVC028 03/M01 A3012 RMK AO2

10-Day Weather Forecast

Almanac

Astronomy

Dec. 02, 2016 Rise Set
Actual Time
Civil Twilight
Nautical Twilight
Astronomical Twilight
Moon
Length of Visible Light
Length of Day
Tomorrow will be .
, % of the Moon is Illuminated

Today's Extremes

State Highs State Lows

Community

WunderPhotos

Upload Photos

1,955,381 photos uploaded!

WunderBlog® & News

Nearby

Air Quality

  Air Quality AQ Index Pollutant
Not available.

Snow Depth

Station Depth Elevation

Earthquake Activity

City Distance Mag. Time & Date
Minimum magnitude displayed is 2.5.

Coastal Water Temperatures

Place Temperature

Stations

Nearby Weather Stations

Station Location Temp. Windchill Dew Point Humidity Wind Precip. Elev Updated Type
                   

Watches & Warnings

There are currently no watches in effect.